createdAt,value
2023-04-27T00:00:31.102Z,3.8
2023-04-27T00:10:32.965Z,3.6
2023-04-27T00:30:37.537Z,3.4
2023-04-27T00:40:39.754Z,3.2
2023-04-27T00:41:01.757Z,3.2
2023-04-27T00:50:49.554Z,2.9
2023-04-27T01:00:52.083Z,3
2023-04-27T01:10:54.310Z,2.9
2023-04-27T01:20:56.713Z,3.2
2023-04-27T01:30:59.155Z,3.1
2023-04-27T01:41:01.823Z,3.3
2023-04-27T01:51:03.740Z,3.4
2023-04-27T02:01:06.352Z,3.2
2023-04-27T02:11:08.774Z,3
2023-04-27T02:31:13.058Z,2.8
2023-04-27T02:41:15.591Z,2.5
2023-04-27T02:51:18.177Z,2.1
2023-04-27T03:01:19.987Z,1.9
2023-04-27T03:11:21.759Z,1.9
2023-04-27T03:21:24.304Z,1.9
2023-04-27T03:31:26.006Z,1.8
2023-04-27T03:41:28.557Z,1.7
2023-04-27T03:51:31.064Z,1.5
2023-04-27T04:01:32.711Z,1.4
2023-04-27T04:11:35.211Z,1.3
2023-04-27T04:21:37.648Z,1.3
2023-04-27T04:31:39.821Z,1.5
2023-04-27T04:41:42.246Z,1.6
2023-04-27T05:01:46.894Z,2.1
2023-04-27T05:11:48.805Z,2.4
2023-04-27T05:21:51.276Z,2.5
2023-04-27T05:31:53.968Z,2.9
2023-04-27T05:41:55.715Z,3.2
2023-04-27T05:51:57.788Z,3.6
2023-04-27T06:01:59.742Z,4.2
2023-04-27T06:12:02.264Z,5.2
2023-04-27T06:22:04.306Z,5.4
2023-04-27T06:32:06.921Z,6
2023-04-27T06:42:09.166Z,6.2
2023-04-27T06:52:10.905Z,6.7
2023-04-27T07:02:12.994Z,6.8
2023-04-27T07:12:14.708Z,6.9
2023-04-27T07:22:16.375Z,7.6
2023-04-27T07:32:18.778Z,7.8
2023-04-27T07:42:21.330Z,7.7
2023-04-27T08:02:25.242Z,8.3
2023-04-27T08:12:27.676Z,8.8
2023-04-27T08:22:29.990Z,8.8
2023-04-27T08:32:32.430Z,9.1
2023-04-27T08:42:34.265Z,9.5
2023-04-27T08:52:36.680Z,9.5
2023-04-27T09:02:38.462Z,9.7
2023-04-27T09:12:40.451Z,9.7
2023-04-27T09:22:42.839Z,9.5
2023-04-27T09:32:44.800Z,10
2023-04-27T09:42:46.696Z,10.5
2023-04-27T09:52:48.881Z,10.2
2023-04-27T10:02:53.437Z,10.6
2023-04-27T10:12:52.404Z,10.3
2023-04-27T10:22:54.956Z,10.6
2023-04-27T10:32:57.613Z,10.5
2023-04-27T10:42:59.456Z,11.4
2023-04-27T11:03:04.021Z,12
2023-04-27T11:13:06.359Z,12.1
2023-04-27T11:23:08.437Z,11.6
2023-04-27T11:33:10.815Z,11.8
2023-04-27T11:43:12.876Z,11.9
2023-04-27T11:53:15.884Z,12.8
2023-04-27T12:03:17.503Z,12.3
2023-04-27T12:13:19.275Z,13
2023-04-27T12:23:21.473Z,12.8
2023-04-27T12:33:23.301Z,12.1
2023-04-27T12:43:25.073Z,11.8
2023-04-27T12:53:27.408Z,12.9
2023-04-27T13:03:29.940Z,12.8
2023-04-27T13:13:32.160Z,13.3
2023-04-27T13:23:33.906Z,12.8
2023-04-27T13:33:36.439Z,12.3
2023-04-27T13:43:38.417Z,13
2023-04-27T13:53:40.274Z,13.2
2023-04-27T14:03:43.585Z,13.5
2023-04-27T14:13:43.906Z,13
2023-04-27T14:23:45.633Z,13.4
2023-04-27T14:33:47.866Z,12.9
2023-04-27T14:53:51.648Z,12.7
2023-04-27T15:03:54.201Z,13.4
2023-04-27T15:13:56.591Z,13.1
2023-04-27T15:34:01.442Z,13
2023-04-27T15:54:05.886Z,13
2023-04-27T16:04:08.187Z,12.7
2023-04-27T16:14:09.976Z,13
2023-04-27T16:24:12.050Z,12.8
2023-04-27T16:44:15.814Z,12.1
2023-04-27T16:54:18.079Z,12
2023-04-27T17:04:20.080Z,12
2023-04-27T17:14:23.605Z,11.9
2023-04-27T17:24:24.330Z,11.8
2023-04-27T17:34:26.612Z,11.5
2023-04-27T17:54:31.484Z,11.3
2023-04-27T18:04:34.063Z,11.2
2023-04-27T18:34:40.178Z,11.1
2023-04-27T18:44:42.366Z,11
2023-04-27T18:54:44.615Z,10.8
2023-04-27T19:04:52.648Z,10.8
2023-04-27T19:14:49.513Z,10.6
2023-04-27T19:24:51.540Z,10.5
2023-04-27T19:44:55.733Z,10.3
2023-04-27T19:54:57.937Z,10.3
2023-04-27T20:05:00.175Z,10.2
2023-04-27T20:15:02.302Z,10.2
2023-04-27T20:25:04.507Z,10
2023-04-27T20:45:09.112Z,9.9
2023-04-27T20:55:11.215Z,9.8
2023-04-27T21:05:13.618Z,9.9
2023-04-27T21:15:15.913Z,9.7
2023-04-27T21:25:17.870Z,9.7
2023-04-27T21:35:19.818Z,9.6
2023-04-27T21:45:22.467Z,9.4
2023-04-27T21:55:24.413Z,9.1
2023-04-27T22:05:26.623Z,9.1
2023-04-27T22:15:28.931Z,8.9
2023-04-27T22:25:30.566Z,8.9
2023-04-27T22:35:32.436Z,8.9
2023-04-27T22:45:36.106Z,8.7
2023-04-27T23:05:38.207Z,8.6
2023-04-27T23:15:39.938Z,8.6
2023-04-27T23:25:42.533Z,8.6
2023-04-27T23:35:44.884Z,8.7
2023-04-27T23:45:46.865Z,8.6
2023-04-27T23:55:49.449Z,8.6
